sensor_id;sensor_type;location;lat;lon;timestamp;P1;durP1;ratioP1;P2;durP2;ratioP2
74670;SDS011;63196;39.564;2.628;2023-06-22T00:00:19;9.00;;;3.40;;
74670;SDS011;63196;39.564;2.628;2023-06-22T00:02:45;9.30;;;3.60;;
74670;SDS011;63196;39.564;2.628;2023-06-22T00:05:10;8.50;;;3.50;;
74670;SDS011;63196;39.564;2.628;2023-06-22T00:07:35;16.00;;;4.70;;
74670;SDS011;63196;39.564;2.628;2023-06-22T00:10:01;16.40;;;5.60;;
74670;SDS011;63196;39.564;2.628;2023-06-22T00:12:26;9.90;;;3.80;;
74670;SDS011;63196;39.564;2.628;2023-06-22T00:14:52;16.30;;;4.50;;
74670;SDS011;63196;39.564;2.628;2023-06-22T00:17:18;13.90;;;4.00;;
74670;SDS011;63196;39.564;2.628;2023-06-22T00:19:43;10.10;;;4.10;;
74670;SDS011;63196;39.564;2.628;2023-06-22T00:22:09;11.40;;;4.00;;
74670;SDS011;63196;39.564;2.628;2023-06-22T00:24:34;12.80;;;3.60;;
74670;SDS011;63196;39.564;2.628;2023-06-22T00:26:59;12.50;;;4.90;;
74670;SDS011;63196;39.564;2.628;2023-06-22T00:29:25;10.30;;;3.70;;
74670;SDS011;63196;39.564;2.628;2023-06-22T00:31:50;11.50;;;3.70;;
74670;SDS011;63196;39.564;2.628;2023-06-22T00:34:16;10.30;;;4.60;;
74670;SDS011;63196;39.564;2.628;2023-06-22T00:36:41;15.10;;;3.80;;
74670;SDS011;63196;39.564;2.628;2023-06-22T00:39:06;9.60;;;3.70;;
74670;SDS011;63196;39.564;2.628;2023-06-22T00:41:33;10.00;;;4.40;;
74670;SDS011;63196;39.564;2.628;2023-06-22T00:43:59;12.40;;;4.30;;
74670;SDS011;63196;39.564;2.628;2023-06-22T00:46:24;7.90;;;3.40;;
74670;SDS011;63196;39.564;2.628;2023-06-22T00:48:50;8.30;;;4.10;;
74670;SDS011;63196;39.564;2.628;2023-06-22T00:51:16;11.10;;;3.90;;
74670;SDS011;63196;39.564;2.628;2023-06-22T00:53:42;8.10;;;3.20;;
74670;SDS011;63196;39.564;2.628;2023-06-22T00:56:08;11.60;;;4.10;;
74670;SDS011;63196;39.564;2.628;2023-06-22T00:58:34;8.40;;;2.90;;
74670;SDS011;63196;39.564;2.628;2023-06-22T01:01:00;10.40;;;3.80;;
74670;SDS011;63196;39.564;2.628;2023-06-22T01:03:26;12.50;;;4.10;;
74670;SDS011;63196;39.564;2.628;2023-06-22T01:05:51;12.60;;;3.50;;
74670;SDS011;63196;39.564;2.628;2023-06-22T01:08:35;15.50;;;4.60;;
74670;SDS011;63196;39.564;2.628;2023-06-22T01:11:16;10.40;;;3.90;;
74670;SDS011;63196;39.564;2.628;2023-06-22T01:13:54;10.20;;;4.50;;
74670;SDS011;63196;39.564;2.628;2023-06-22T01:16:33;10.10;;;3.90;;
74670;SDS011;63196;39.564;2.628;2023-06-22T01:19:27;10.50;;;4.00;;
74670;SDS011;63196;39.564;2.628;2023-06-22T01:21:44;11.40;;;4.00;;
74670;SDS011;63196;39.564;2.628;2023-06-22T01:26:39;12.70;;;4.00;;
74670;SDS011;63196;39.564;2.628;2023-06-22T01:29:07;10.00;;;3.50;;
74670;SDS011;63196;39.564;2.628;2023-06-22T01:31:33;13.60;;;4.50;;
74670;SDS011;63196;39.564;2.628;2023-06-22T01:34:03;11.00;;;3.70;;
74670;SDS011;63196;39.564;2.628;2023-06-22T01:36:29;12.90;;;4.90;;
74670;SDS011;63196;39.564;2.628;2023-06-22T01:38:55;11.00;;;3.80;;
74670;SDS011;63196;39.564;2.628;2023-06-22T01:41:23;12.30;;;4.70;;
74670;SDS011;63196;39.564;2.628;2023-06-22T01:46:15;7.20;;;3.20;;
74670;SDS011;63196;39.564;2.628;2023-06-22T01:48:40;12.80;;;4.30;;
74670;SDS011;63196;39.564;2.628;2023-06-22T01:51:06;11.00;;;5.00;;
74670;SDS011;63196;39.564;2.628;2023-06-22T01:53:31;10.00;;;3.90;;
74670;SDS011;63196;39.564;2.628;2023-06-22T01:55:57;13.50;;;4.10;;
74670;SDS011;63196;39.564;2.628;2023-06-22T01:58:25;10.90;;;4.00;;
74670;SDS011;63196;39.564;2.628;2023-06-22T02:01:05;11.00;;;4.10;;
74670;SDS011;63196;39.564;2.628;2023-06-22T02:03:35;10.50;;;4.40;;
74670;SDS011;63196;39.564;2.628;2023-06-22T02:06:10;13.30;;;4.20;;
74670;SDS011;63196;39.564;2.628;2023-06-22T02:08:41;10.00;;;4.30;;
74670;SDS011;63196;39.564;2.628;2023-06-22T02:11:08;11.70;;;4.10;;
74670;SDS011;63196;39.564;2.628;2023-06-22T02:13:34;13.00;;;3.80;;
74670;SDS011;63196;39.564;2.628;2023-06-22T02:16:01;14.00;;;4.70;;
74670;SDS011;63196;39.564;2.628;2023-06-22T02:18:26;11.90;;;4.10;;
74670;SDS011;63196;39.564;2.628;2023-06-22T02:20:52;13.60;;;3.90;;
74670;SDS011;63196;39.564;2.628;2023-06-22T02:23:17;15.40;;;5.20;;
74670;SDS011;63196;39.564;2.628;2023-06-22T02:25:43;11.10;;;4.60;;
74670;SDS011;63196;39.564;2.628;2023-06-22T02:28:09;13.30;;;4.00;;
74670;SDS011;63196;39.564;2.628;2023-06-22T02:30:38;9.60;;;4.10;;
74670;SDS011;63196;39.564;2.628;2023-06-22T02:33:03;11.30;;;4.60;;
74670;SDS011;63196;39.564;2.628;2023-06-22T02:35:29;11.70;;;3.90;;
74670;SDS011;63196;39.564;2.628;2023-06-22T02:38:01;12.80;;;4.70;;
74670;SDS011;63196;39.564;2.628;2023-06-22T02:40:27;10.00;;;3.50;;
74670;SDS011;63196;39.564;2.628;2023-06-22T02:42:52;9.00;;;4.00;;
74670;SDS011;63196;39.564;2.628;2023-06-22T02:45:18;14.80;;;5.20;;
74670;SDS011;63196;39.564;2.628;2023-06-22T02:47:43;15.10;;;4.80;;
74670;SDS011;63196;39.564;2.628;2023-06-22T02:50:09;11.20;;;4.20;;
74670;SDS011;63196;39.564;2.628;2023-06-22T02:52:34;9.80;;;3.70;;
74670;SDS011;63196;39.564;2.628;2023-06-22T02:55:00;10.50;;;4.80;;
74670;SDS011;63196;39.564;2.628;2023-06-22T02:57:25;8.80;;;3.80;;
74670;SDS011;63196;39.564;2.628;2023-06-22T02:59:50;11.50;;;4.40;;
74670;SDS011;63196;39.564;2.628;2023-06-22T03:02:16;10.60;;;4.40;;
74670;SDS011;63196;39.564;2.628;2023-06-22T03:04:41;8.90;;;3.80;;
74670;SDS011;63196;39.564;2.628;2023-06-22T03:07:08;11.50;;;4.40;;
74670;SDS011;63196;39.564;2.628;2023-06-22T03:09:33;12.40;;;4.50;;
74670;SDS011;63196;39.564;2.628;2023-06-22T03:11:58;11.90;;;4.00;;
74670;SDS011;63196;39.564;2.628;2023-06-22T03:14:24;10.70;;;4.00;;
74670;SDS011;63196;39.564;2.628;2023-06-22T03:16:49;15.50;;;4.70;;
74670;SDS011;63196;39.564;2.628;2023-06-22T03:19:15;11.80;;;4.40;;
74670;SDS011;63196;39.564;2.628;2023-06-22T03:21:40;11.90;;;5.00;;
74670;SDS011;63196;39.564;2.628;2023-06-22T03:24:06;12.40;;;4.10;;
74670;SDS011;63196;39.564;2.628;2023-06-22T03:26:32;9.10;;;3.80;;
74670;SDS011;63196;39.564;2.628;2023-06-22T03:28:57;9.30;;;4.20;;
74670;SDS011;63196;39.564;2.628;2023-06-22T03:31:23;18.10;;;5.30;;
74670;SDS011;63196;39.564;2.628;2023-06-22T03:33:48;9.90;;;3.90;;
74670;SDS011;63196;39.564;2.628;2023-06-22T03:36:15;11.70;;;4.60;;
74670;SDS011;63196;39.564;2.628;2023-06-22T03:38:44;11.20;;;4.20;;
74670;SDS011;63196;39.564;2.628;2023-06-22T03:41:10;11.90;;;4.50;;
74670;SDS011;63196;39.564;2.628;2023-06-22T03:43:35;8.80;;;3.90;;
74670;SDS011;63196;39.564;2.628;2023-06-22T03:46:00;14.10;;;4.80;;
74670;SDS011;63196;39.564;2.628;2023-06-22T03:48:26;12.00;;;4.00;;
74670;SDS011;63196;39.564;2.628;2023-06-22T03:50:51;9.10;;;4.10;;
74670;SDS011;63196;39.564;2.628;2023-06-22T03:53:17;13.00;;;4.40;;
74670;SDS011;63196;39.564;2.628;2023-06-22T03:55:52;16.20;;;4.70;;
74670;SDS011;63196;39.564;2.628;2023-06-22T03:58:18;11.00;;;4.80;;
74670;SDS011;63196;39.564;2.628;2023-06-22T04:00:46;11.20;;;4.20;;
74670;SDS011;63196;39.564;2.628;2023-06-22T04:03:12;10.70;;;4.60;;
74670;SDS011;63196;39.564;2.628;2023-06-22T04:05:38;13.90;;;5.00;;
74670;SDS011;63196;39.564;2.628;2023-06-22T04:08:03;12.70;;;4.70;;
74670;SDS011;63196;39.564;2.628;2023-06-22T04:10:29;14.90;;;5.40;;
74670;SDS011;63196;39.564;2.628;2023-06-22T04:12:54;11.40;;;4.30;;
74670;SDS011;63196;39.564;2.628;2023-06-22T04:15:19;10.70;;;4.60;;
74670;SDS011;63196;39.564;2.628;2023-06-22T04:17:45;13.70;;;3.80;;
74670;SDS011;63196;39.564;2.628;2023-06-22T04:20:10;13.50;;;5.30;;
74670;SDS011;63196;39.564;2.628;2023-06-22T04:22:36;14.30;;;6.30;;
74670;SDS011;63196;39.564;2.628;2023-06-22T04:25:01;16.50;;;5.70;;
74670;SDS011;63196;39.564;2.628;2023-06-22T04:27:26;13.40;;;5.80;;
74670;SDS011;63196;39.564;2.628;2023-06-22T04:29:52;12.50;;;5.90;;
74670;SDS011;63196;39.564;2.628;2023-06-22T04:32:17;10.20;;;6.60;;
74670;SDS011;63196;39.564;2.628;2023-06-22T04:34:43;10.80;;;4.90;;
74670;SDS011;63196;39.564;2.628;2023-06-22T04:37:09;12.70;;;6.50;;
74670;SDS011;63196;39.564;2.628;2023-06-22T04:39:34;13.60;;;7.40;;
74670;SDS011;63196;39.564;2.628;2023-06-22T04:42:01;13.60;;;5.70;;
74670;SDS011;63196;39.564;2.628;2023-06-22T04:44:26;14.40;;;5.50;;
74670;SDS011;63196;39.564;2.628;2023-06-22T04:46:52;15.20;;;6.00;;
74670;SDS011;63196;39.564;2.628;2023-06-22T04:49:19;15.50;;;5.40;;
74670;SDS011;63196;39.564;2.628;2023-06-22T04:51:45;15.10;;;5.80;;
74670;SDS011;63196;39.564;2.628;2023-06-22T04:54:10;12.10;;;5.10;;
74670;SDS011;63196;39.564;2.628;2023-06-22T04:56:36;15.80;;;5.50;;
74670;SDS011;63196;39.564;2.628;2023-06-22T04:59:02;12.50;;;5.10;;
74670;SDS011;63196;39.564;2.628;2023-06-22T05:01:28;12.60;;;5.20;;
74670;SDS011;63196;39.564;2.628;2023-06-22T05:03:56;15.40;;;5.20;;
74670;SDS011;63196;39.564;2.628;2023-06-22T05:06:22;19.70;;;5.80;;
74670;SDS011;63196;39.564;2.628;2023-06-22T05:08:52;11.10;;;4.80;;
74670;SDS011;63196;39.564;2.628;2023-06-22T05:11:18;9.10;;;4.60;;
74670;SDS011;63196;39.564;2.628;2023-06-22T05:13:43;12.20;;;5.40;;
74670;SDS011;63196;39.564;2.628;2023-06-22T05:16:08;16.80;;;5.50;;
74670;SDS011;63196;39.564;2.628;2023-06-22T05:18:34;18.20;;;6.20;;
74670;SDS011;63196;39.564;2.628;2023-06-22T05:21:00;12.10;;;4.60;;
74670;SDS011;63196;39.564;2.628;2023-06-22T05:23:26;12.40;;;5.60;;
74670;SDS011;63196;39.564;2.628;2023-06-22T05:25:51;15.20;;;4.80;;
74670;SDS011;63196;39.564;2.628;2023-06-22T05:28:17;8.80;;;4.10;;
74670;SDS011;63196;39.564;2.628;2023-06-22T05:30:48;15.60;;;5.30;;
74670;SDS011;63196;39.564;2.628;2023-06-22T05:33:13;10.80;;;4.90;;
74670;SDS011;63196;39.564;2.628;2023-06-22T05:35:39;14.00;;;3.90;;
74670;SDS011;63196;39.564;2.628;2023-06-22T05:38:04;13.90;;;4.70;;
74670;SDS011;63196;39.564;2.628;2023-06-22T05:40:29;14.70;;;5.40;;
74670;SDS011;63196;39.564;2.628;2023-06-22T05:42:55;13.60;;;5.10;;
74670;SDS011;63196;39.564;2.628;2023-06-22T05:45:20;14.20;;;5.00;;
74670;SDS011;63196;39.564;2.628;2023-06-22T05:47:45;11.40;;;4.60;;
74670;SDS011;63196;39.564;2.628;2023-06-22T05:50:11;14.50;;;4.80;;
74670;SDS011;63196;39.564;2.628;2023-06-22T05:52:36;15.50;;;5.50;;
74670;SDS011;63196;39.564;2.628;2023-06-22T05:55:02;12.60;;;4.30;;
74670;SDS011;63196;39.564;2.628;2023-06-22T05:57:27;12.90;;;4.70;;
74670;SDS011;63196;39.564;2.628;2023-06-22T05:59:53;14.40;;;4.50;;
74670;SDS011;63196;39.564;2.628;2023-06-22T06:02:19;14.80;;;4.70;;
74670;SDS011;63196;39.564;2.628;2023-06-22T06:04:44;14.00;;;4.60;;
74670;SDS011;63196;39.564;2.628;2023-06-22T06:07:10;19.10;;;4.60;;
74670;SDS011;63196;39.564;2.628;2023-06-22T06:09:35;11.30;;;5.40;;
74670;SDS011;63196;39.564;2.628;2023-06-22T06:12:00;9.10;;;4.10;;
74670;SDS011;63196;39.564;2.628;2023-06-22T06:14:28;10.00;;;4.90;;
74670;SDS011;63196;39.564;2.628;2023-06-22T06:16:53;12.40;;;5.10;;
74670;SDS011;63196;39.564;2.628;2023-06-22T06:19:19;15.80;;;4.70;;
74670;SDS011;63196;39.564;2.628;2023-06-22T06:21:44;11.70;;;4.90;;
74670;SDS011;63196;39.564;2.628;2023-06-22T06:24:11;12.50;;;4.90;;
74670;SDS011;63196;39.564;2.628;2023-06-22T06:26:37;15.00;;;5.20;;
74670;SDS011;63196;39.564;2.628;2023-06-22T06:29:02;13.80;;;4.60;;
74670;SDS011;63196;39.564;2.628;2023-06-22T06:31:28;13.10;;;4.10;;
74670;SDS011;63196;39.564;2.628;2023-06-22T06:33:54;12.70;;;4.30;;
74670;SDS011;63196;39.564;2.628;2023-06-22T06:36:20;14.60;;;4.80;;
74670;SDS011;63196;39.564;2.628;2023-06-22T06:38:45;17.50;;;4.60;;
74670;SDS011;63196;39.564;2.628;2023-06-22T06:41:15;13.80;;;5.30;;
74670;SDS011;63196;39.564;2.628;2023-06-22T06:43:41;13.60;;;4.40;;
74670;SDS011;63196;39.564;2.628;2023-06-22T06:46:08;12.30;;;4.70;;
74670;SDS011;63196;39.564;2.628;2023-06-22T06:48:34;19.60;;;5.60;;
74670;SDS011;63196;39.564;2.628;2023-06-22T06:51:00;16.50;;;4.80;;
74670;SDS011;63196;39.564;2.628;2023-06-22T06:53:25;11.70;;;4.80;;
74670;SDS011;63196;39.564;2.628;2023-06-22T06:55:51;12.30;;;4.70;;
74670;SDS011;63196;39.564;2.628;2023-06-22T06:58:16;14.70;;;4.10;;
74670;SDS011;63196;39.564;2.628;2023-06-22T07:00:42;13.20;;;4.60;;
74670;SDS011;63196;39.564;2.628;2023-06-22T07:03:08;14.30;;;5.50;;
74670;SDS011;63196;39.564;2.628;2023-06-22T07:05:34;12.80;;;4.60;;
74670;SDS011;63196;39.564;2.628;2023-06-22T07:08:00;15.80;;;4.50;;
74670;SDS011;63196;39.564;2.628;2023-06-22T07:10:26;13.00;;;6.00;;
74670;SDS011;63196;39.564;2.628;2023-06-22T07:12:51;9.10;;;4.20;;
74670;SDS011;63196;39.564;2.628;2023-06-22T07:15:26;9.30;;;4.10;;
74670;SDS011;63196;39.564;2.628;2023-06-22T07:17:51;11.90;;;4.40;;
74670;SDS011;63196;39.564;2.628;2023-06-22T07:20:17;14.60;;;4.70;;
74670;SDS011;63196;39.564;2.628;2023-06-22T07:22:44;11.80;;;4.40;;
74670;SDS011;63196;39.564;2.628;2023-06-22T07:25:12;10.80;;;4.00;;
74670;SDS011;63196;39.564;2.628;2023-06-22T07:30:39;8.10;;;3.60;;
74670;SDS011;63196;39.564;2.628;2023-06-22T07:33:05;14.30;;;4.20;;
74670;SDS011;63196;39.564;2.628;2023-06-22T07:35:33;13.80;;;4.00;;
74670;SDS011;63196;39.564;2.628;2023-06-22T07:37:58;8.80;;;3.90;;
74670;SDS011;63196;39.564;2.628;2023-06-22T07:40:24;9.80;;;3.80;;
74670;SDS011;63196;39.564;2.628;2023-06-22T07:42:49;10.40;;;3.70;;
74670;SDS011;63196;39.564;2.628;2023-06-22T07:45:17;9.90;;;3.60;;
74670;SDS011;63196;39.564;2.628;2023-06-22T07:47:42;10.00;;;3.30;;
74670;SDS011;63196;39.564;2.628;2023-06-22T07:50:08;9.80;;;3.50;;
74670;SDS011;63196;39.564;2.628;2023-06-22T07:52:33;11.20;;;3.60;;
74670;SDS011;63196;39.564;2.628;2023-06-22T07:54:59;13.80;;;3.40;;
74670;SDS011;63196;39.564;2.628;2023-06-22T07:57:24;10.50;;;4.00;;
74670;SDS011;63196;39.564;2.628;2023-06-22T08:00:17;14.20;;;3.50;;
74670;SDS011;63196;39.564;2.628;2023-06-22T08:02:45;9.90;;;3.40;;
74670;SDS011;63196;39.564;2.628;2023-06-22T08:07:36;7.80;;;3.70;;
74670;SDS011;63196;39.564;2.628;2023-06-22T08:10:03;12.50;;;2.80;;
74670;SDS011;63196;39.564;2.628;2023-06-22T08:12:28;9.50;;;2.70;;
74670;SDS011;63196;39.564;2.628;2023-06-22T08:14:54;9.30;;;3.20;;
74670;SDS011;63196;39.564;2.628;2023-06-22T08:17:19;6.70;;;2.90;;
74670;SDS011;63196;39.564;2.628;2023-06-22T08:19:45;10.30;;;3.10;;
74670;SDS011;63196;39.564;2.628;2023-06-22T08:22:10;9.00;;;3.20;;
74670;SDS011;63196;39.564;2.628;2023-06-22T08:24:35;8.60;;;3.10;;
74670;SDS011;63196;39.564;2.628;2023-06-22T08:27:01;6.80;;;2.70;;
74670;SDS011;63196;39.564;2.628;2023-06-22T08:29:26;5.80;;;2.50;;
74670;SDS011;63196;39.564;2.628;2023-06-22T08:31:51;9.00;;;2.90;;
74670;SDS011;63196;39.564;2.628;2023-06-22T08:34:17;7.50;;;2.80;;
74670;SDS011;63196;39.564;2.628;2023-06-22T08:36:47;8.80;;;3.30;;
74670;SDS011;63196;39.564;2.628;2023-06-22T08:39:17;10.30;;;3.00;;
74670;SDS011;63196;39.564;2.628;2023-06-22T08:41:42;10.00;;;2.60;;
74670;SDS011;63196;39.564;2.628;2023-06-22T08:44:07;7.90;;;2.90;;
74670;SDS011;63196;39.564;2.628;2023-06-22T08:46:33;7.70;;;2.80;;
74670;SDS011;63196;39.564;2.628;2023-06-22T08:48:59;8.50;;;2.90;;
74670;SDS011;63196;39.564;2.628;2023-06-22T08:51:24;11.40;;;3.60;;
74670;SDS011;63196;39.564;2.628;2023-06-22T08:53:50;8.60;;;2.90;;
74670;SDS011;63196;39.564;2.628;2023-06-22T08:56:15;8.20;;;2.80;;
74670;SDS011;63196;39.564;2.628;2023-06-22T08:58:40;9.10;;;3.10;;
74670;SDS011;63196;39.564;2.628;2023-06-22T09:01:06;9.50;;;2.80;;
74670;SDS011;63196;39.564;2.628;2023-06-22T09:03:31;6.80;;;3.00;;
74670;SDS011;63196;39.564;2.628;2023-06-22T09:05:58;7.20;;;2.60;;
74670;SDS011;63196;39.564;2.628;2023-06-22T09:08:24;10.50;;;3.40;;
74670;SDS011;63196;39.564;2.628;2023-06-22T09:10:49;8.40;;;2.70;;
74670;SDS011;63196;39.564;2.628;2023-06-22T09:13:14;7.70;;;2.10;;
74670;SDS011;63196;39.564;2.628;2023-06-22T09:15:40;11.70;;;2.60;;
74670;SDS011;63196;39.564;2.628;2023-06-22T09:18:05;8.50;;;3.10;;
74670;SDS011;63196;39.564;2.628;2023-06-22T09:20:31;7.50;;;2.60;;
74670;SDS011;63196;39.564;2.628;2023-06-22T09:22:56;8.70;;;2.70;;
74670;SDS011;63196;39.564;2.628;2023-06-22T09:25:22;7.00;;;2.70;;
74670;SDS011;63196;39.564;2.628;2023-06-22T09:27:47;11.40;;;3.40;;
74670;SDS011;63196;39.564;2.628;2023-06-22T09:30:13;7.20;;;2.80;;
74670;SDS011;63196;39.564;2.628;2023-06-22T09:32:38;8.20;;;2.60;;
74670;SDS011;63196;39.564;2.628;2023-06-22T09:35:04;5.30;;;2.40;;
74670;SDS011;63196;39.564;2.628;2023-06-22T09:37:34;9.60;;;3.70;;
74670;SDS011;63196;39.564;2.628;2023-06-22T09:40:00;8.40;;;3.10;;
74670;SDS011;63196;39.564;2.628;2023-06-22T09:42:25;7.50;;;2.70;;
74670;SDS011;63196;39.564;2.628;2023-06-22T09:44:50;8.30;;;3.40;;
74670;SDS011;63196;39.564;2.628;2023-06-22T09:47:16;6.70;;;2.50;;
74670;SDS011;63196;39.564;2.628;2023-06-22T09:49:41;11.40;;;4.00;;
74670;SDS011;63196;39.564;2.628;2023-06-22T09:52:07;8.90;;;2.70;;
74670;SDS011;63196;39.564;2.628;2023-06-22T09:54:32;10.40;;;3.00;;
74670;SDS011;63196;39.564;2.628;2023-06-22T09:56:57;6.90;;;2.40;;
74670;SDS011;63196;39.564;2.628;2023-06-22T09:59:23;9.20;;;3.10;;
74670;SDS011;63196;39.564;2.628;2023-06-22T10:01:48;8.40;;;2.80;;
74670;SDS011;63196;39.564;2.628;2023-06-22T10:04:13;7.60;;;3.10;;
74670;SDS011;63196;39.564;2.628;2023-06-22T10:06:39;8.80;;;3.40;;
74670;SDS011;63196;39.564;2.628;2023-06-22T10:09:06;9.80;;;3.70;;
74670;SDS011;63196;39.564;2.628;2023-06-22T10:11:32;8.40;;;2.90;;
74670;SDS011;63196;39.564;2.628;2023-06-22T10:14:00;7.20;;;2.80;;
74670;SDS011;63196;39.564;2.628;2023-06-22T10:16:30;7.90;;;3.40;;
74670;SDS011;63196;39.564;2.628;2023-06-22T10:18:55;7.80;;;2.80;;
74670;SDS011;63196;39.564;2.628;2023-06-22T10:21:20;9.80;;;3.00;;
74670;SDS011;63196;39.564;2.628;2023-06-22T10:23:46;11.20;;;3.30;;
74670;SDS011;63196;39.564;2.628;2023-06-22T10:26:11;8.80;;;2.60;;
74670;SDS011;63196;39.564;2.628;2023-06-22T10:28:36;7.70;;;2.50;;
74670;SDS011;63196;39.564;2.628;2023-06-22T10:31:02;5.40;;;2.30;;
74670;SDS011;63196;39.564;2.628;2023-06-22T10:33:27;11.00;;;3.00;;
74670;SDS011;63196;39.564;2.628;2023-06-22T10:35:52;6.00;;;2.20;;
74670;SDS011;63196;39.564;2.628;2023-06-22T10:38:18;7.30;;;2.60;;
74670;SDS011;63196;39.564;2.628;2023-06-22T10:40:43;9.00;;;2.30;;
74670;SDS011;63196;39.564;2.628;2023-06-22T10:43:08;7.20;;;2.30;;
74670;SDS011;63196;39.564;2.628;2023-06-22T10:45:34;6.30;;;2.50;;
74670;SDS011;63196;39.564;2.628;2023-06-22T10:47:59;6.30;;;2.20;;
74670;SDS011;63196;39.564;2.628;2023-06-22T10:50:25;8.90;;;3.00;;
74670;SDS011;63196;39.564;2.628;2023-06-22T10:52:50;12.30;;;2.90;;
74670;SDS011;63196;39.564;2.628;2023-06-22T10:55:16;8.50;;;2.80;;
74670;SDS011;63196;39.564;2.628;2023-06-22T10:57:41;7.30;;;2.80;;
74670;SDS011;63196;39.564;2.628;2023-06-22T11:00:09;9.10;;;3.10;;
74670;SDS011;63196;39.564;2.628;2023-06-22T11:02:36;6.30;;;3.30;;
74670;SDS011;63196;39.564;2.628;2023-06-22T11:05:01;6.10;;;2.70;;
74670;SDS011;63196;39.564;2.628;2023-06-22T11:07:28;6.70;;;2.60;;
74670;SDS011;63196;39.564;2.628;2023-06-22T11:09:54;5.70;;;2.60;;
74670;SDS011;63196;39.564;2.628;2023-06-22T11:12:59;7.30;;;2.80;;
74670;SDS011;63196;39.564;2.628;2023-06-22T11:15:25;6.60;;;2.60;;
74670;SDS011;63196;39.564;2.628;2023-06-22T11:17:50;7.50;;;2.20;;
74670;SDS011;63196;39.564;2.628;2023-06-22T11:20:16;4.60;;;2.30;;
74670;SDS011;63196;39.564;2.628;2023-06-22T11:22:41;7.40;;;2.10;;
74670;SDS011;63196;39.564;2.628;2023-06-22T11:25:07;6.60;;;2.10;;
74670;SDS011;63196;39.564;2.628;2023-06-22T11:27:33;6.10;;;1.90;;
74670;SDS011;63196;39.564;2.628;2023-06-22T11:29:58;4.60;;;2.20;;
74670;SDS011;63196;39.564;2.628;2023-06-22T11:32:24;4.80;;;1.80;;
74670;SDS011;63196;39.564;2.628;2023-06-22T11:34:49;4.40;;;1.80;;
74670;SDS011;63196;39.564;2.628;2023-06-22T11:37:15;5.80;;;2.20;;
74670;SDS011;63196;39.564;2.628;2023-06-22T11:39:41;5.50;;;2.10;;
74670;SDS011;63196;39.564;2.628;2023-06-22T11:42:06;6.50;;;2.50;;
74670;SDS011;63196;39.564;2.628;2023-06-22T11:44:32;7.30;;;2.90;;
74670;SDS011;63196;39.564;2.628;2023-06-22T11:46:57;5.90;;;2.20;;
74670;SDS011;63196;39.564;2.628;2023-06-22T11:49:23;3.80;;;1.80;;
74670;SDS011;63196;39.564;2.628;2023-06-22T11:51:48;6.20;;;2.60;;
74670;SDS011;63196;39.564;2.628;2023-06-22T11:54:13;4.70;;;2.00;;
74670;SDS011;63196;39.564;2.628;2023-06-22T11:56:39;5.00;;;2.20;;
74670;SDS011;63196;39.564;2.628;2023-06-22T11:59:04;5.90;;;2.60;;
74670;SDS011;63196;39.564;2.628;2023-06-22T12:01:30;5.90;;;2.70;;
74670;SDS011;63196;39.564;2.628;2023-06-22T12:03:58;7.60;;;3.40;;
74670;SDS011;63196;39.564;2.628;2023-06-22T12:06:23;6.30;;;3.10;;
74670;SDS011;63196;39.564;2.628;2023-06-22T12:08:48;5.00;;;3.10;;
74670;SDS011;63196;39.564;2.628;2023-06-22T12:11:14;7.40;;;3.60;;
74670;SDS011;63196;39.564;2.628;2023-06-22T12:13:39;4.10;;;2.40;;
74670;SDS011;63196;39.564;2.628;2023-06-22T12:16:05;5.50;;;2.70;;
74670;SDS011;63196;39.564;2.628;2023-06-22T12:18:30;4.60;;;2.60;;
74670;SDS011;63196;39.564;2.628;2023-06-22T12:20:55;4.80;;;2.50;;
74670;SDS011;63196;39.564;2.628;2023-06-22T12:23:21;5.00;;;2.70;;
74670;SDS011;63196;39.564;2.628;2023-06-22T12:25:46;5.90;;;2.80;;
74670;SDS011;63196;39.564;2.628;2023-06-22T12:28:11;5.10;;;3.20;;
74670;SDS011;63196;39.564;2.628;2023-06-22T12:30:37;5.70;;;3.40;;
74670;SDS011;63196;39.564;2.628;2023-06-22T12:33:02;4.10;;;2.70;;
74670;SDS011;63196;39.564;2.628;2023-06-22T12:35:28;5.20;;;3.00;;
74670;SDS011;63196;39.564;2.628;2023-06-22T12:37:53;4.60;;;2.90;;
74670;SDS011;63196;39.564;2.628;2023-06-22T12:40:18;6.90;;;3.00;;
74670;SDS011;63196;39.564;2.628;2023-06-22T12:42:47;6.40;;;3.30;;
74670;SDS011;63196;39.564;2.628;2023-06-22T12:45:12;6.80;;;2.90;;
74670;SDS011;63196;39.564;2.628;2023-06-22T12:47:38;8.60;;;3.50;;
74670;SDS011;63196;39.564;2.628;2023-06-22T12:50:03;6.50;;;3.10;;
74670;SDS011;63196;39.564;2.628;2023-06-22T12:52:30;5.80;;;2.80;;
74670;SDS011;63196;39.564;2.628;2023-06-22T12:54:56;5.70;;;2.80;;
74670;SDS011;63196;39.564;2.628;2023-06-22T12:57:22;5.60;;;2.70;;
74670;SDS011;63196;39.564;2.628;2023-06-22T12:59:47;6.00;;;2.50;;
74670;SDS011;63196;39.564;2.628;2023-06-22T13:02:13;7.50;;;2.80;;
74670;SDS011;63196;39.564;2.628;2023-06-22T13:04:38;7.60;;;2.90;;
74670;SDS011;63196;39.564;2.628;2023-06-22T13:07:04;6.70;;;3.00;;
74670;SDS011;63196;39.564;2.628;2023-06-22T13:09:30;6.30;;;2.60;;
74670;SDS011;63196;39.564;2.628;2023-06-22T13:14:21;5.80;;;2.60;;
74670;SDS011;63196;39.564;2.628;2023-06-22T13:16:46;4.40;;;2.40;;
74670;SDS011;63196;39.564;2.628;2023-06-22T13:19:12;5.70;;;2.60;;
74670;SDS011;63196;39.564;2.628;2023-06-22T13:21:37;4.80;;;2.70;;
74670;SDS011;63196;39.564;2.628;2023-06-22T13:24:03;5.50;;;2.60;;
74670;SDS011;63196;39.564;2.628;2023-06-22T13:26:28;4.80;;;2.40;;
74670;SDS011;63196;39.564;2.628;2023-06-22T13:28:54;5.80;;;2.70;;
74670;SDS011;63196;39.564;2.628;2023-06-22T13:31:19;6.40;;;2.70;;
74670;SDS011;63196;39.564;2.628;2023-06-22T13:33:44;4.70;;;2.10;;
74670;SDS011;63196;39.564;2.628;2023-06-22T13:36:30;4.70;;;2.40;;
74670;SDS011;63196;39.564;2.628;2023-06-22T13:38:58;5.70;;;2.50;;
74670;SDS011;63196;39.564;2.628;2023-06-22T13:41:24;4.70;;;2.80;;
74670;SDS011;63196;39.564;2.628;2023-06-22T13:43:49;4.60;;;2.40;;
74670;SDS011;63196;39.564;2.628;2023-06-22T13:46:14;4.50;;;2.90;;
74670;SDS011;63196;39.564;2.628;2023-06-22T13:48:40;4.40;;;2.30;;
74670;SDS011;63196;39.564;2.628;2023-06-22T13:51:05;6.40;;;2.50;;
74670;SDS011;63196;39.564;2.628;2023-06-22T13:53:31;5.40;;;2.60;;
74670;SDS011;63196;39.564;2.628;2023-06-22T13:55:56;5.60;;;2.80;;
74670;SDS011;63196;39.564;2.628;2023-06-22T13:58:22;5.30;;;2.20;;
74670;SDS011;63196;39.564;2.628;2023-06-22T14:00:48;4.10;;;2.20;;
74670;SDS011;63196;39.564;2.628;2023-06-22T14:03:14;4.60;;;2.30;;
74670;SDS011;63196;39.564;2.628;2023-06-22T14:05:41;6.20;;;2.70;;
74670;SDS011;63196;39.564;2.628;2023-06-22T14:08:07;5.50;;;2.90;;
74670;SDS011;63196;39.564;2.628;2023-06-22T14:10:32;4.20;;;2.40;;
74670;SDS011;63196;39.564;2.628;2023-06-22T14:12:58;5.30;;;2.60;;
74670;SDS011;63196;39.564;2.628;2023-06-22T14:15:25;4.20;;;2.30;;
74670;SDS011;63196;39.564;2.628;2023-06-22T14:17:50;3.80;;;2.30;;
74670;SDS011;63196;39.564;2.628;2023-06-22T14:20:16;4.80;;;2.60;;
74670;SDS011;63196;39.564;2.628;2023-06-22T14:22:41;5.00;;;3.10;;
74670;SDS011;63196;39.564;2.628;2023-06-22T14:25:07;4.70;;;2.40;;
74670;SDS011;63196;39.564;2.628;2023-06-22T14:27:33;5.50;;;2.50;;
74670;SDS011;63196;39.564;2.628;2023-06-22T14:29:58;4.80;;;2.60;;
74670;SDS011;63196;39.564;2.628;2023-06-22T14:32:24;5.30;;;2.20;;
74670;SDS011;63196;39.564;2.628;2023-06-22T14:37:15;4.50;;;2.20;;
74670;SDS011;63196;39.564;2.628;2023-06-22T14:39:41;4.60;;;2.30;;
74670;SDS011;63196;39.564;2.628;2023-06-22T14:42:08;4.80;;;2.50;;
74670;SDS011;63196;39.564;2.628;2023-06-22T14:44:33;6.10;;;3.10;;
74670;SDS011;63196;39.564;2.628;2023-06-22T14:47:01;3.70;;;2.20;;
74670;SDS011;63196;39.564;2.628;2023-06-22T14:49:26;4.50;;;2.10;;